createdAt,value
2022-09-06T00:00:21.798Z,95605.13
2022-09-06T00:03:05.521Z,95603.66
2022-09-06T00:05:48.669Z,95603.66
2022-09-06T00:08:31.704Z,95605.94
2022-09-06T00:11:15.716Z,95602.97
2022-09-06T00:14:00.201Z,95602.38
2022-09-06T00:16:43.265Z,95604.66
2022-09-06T00:19:26.295Z,95606.69
2022-09-06T00:22:09.706Z,95605.22
2022-09-06T00:24:52.764Z,95600.44
2022-09-06T00:27:36.391Z,95607.84
2022-09-06T00:30:20.799Z,95585.78
2022-09-06T00:33:03.954Z,95597.84
2022-09-06T00:35:47.482Z,95589.09
2022-09-06T00:38:31.493Z,95599.19
2022-09-06T00:41:16.118Z,95599.19
2022-09-06T00:43:59.222Z,95599.53
2022-09-06T00:46:46.439Z,95593.06
2022-09-06T00:49:32.979Z,95593.63
2022-09-06T00:52:19.044Z,95587.59
2022-09-06T00:55:02.519Z,95595.22
2022-09-06T00:57:46.607Z,95591.88
2022-09-06T01:00:29.731Z,95596.44
2022-09-06T01:03:15.354Z,95594.25
2022-09-06T01:06:07.172Z,95596.44
2022-09-06T01:09:02.994Z,95598.16
2022-09-06T01:12:00.041Z,95598.06
2022-09-06T01:14:56.230Z,95602.25
2022-09-06T01:17:51.932Z,95595.75
2022-09-06T01:21:03.526Z,95598.78
2022-09-06T01:24:25.397Z,95604.81
2022-09-06T01:27:29.936Z,95599.56
2022-09-06T01:30:15.768Z,95595.69
2022-09-06T01:33:07.493Z,95590.91
2022-09-06T01:35:55.600Z,95595.22
2022-09-06T01:38:38.717Z,95592.06
2022-09-06T01:41:21.775Z,95581.63
2022-09-06T01:44:06.309Z,95586.38
2022-09-06T01:46:57.725Z,95576.25
2022-09-06T01:49:55.981Z,95577.06
2022-09-06T01:52:51.665Z,95573.22
2022-09-06T01:55:45.133Z,95569.69
2022-09-06T01:58:54.667Z,95568.41
2022-09-06T02:01:50.544Z,95569.91
2022-09-06T02:04:41.437Z,95562.06
2022-09-06T02:07:27.385Z,95562.06
2022-09-06T02:10:15.024Z,95566.06
2022-09-06T02:13:02.369Z,95555.78
2022-09-06T02:15:52.493Z,95558.19
2022-09-06T02:18:41.493Z,95569.06
2022-09-06T02:21:29.621Z,95563.13
2022-09-06T02:24:18.535Z,95562.72
2022-09-06T02:27:01.851Z,95561.53
2022-09-06T02:29:44.997Z,95564.75
2022-09-06T02:32:30.208Z,95566.06
2022-09-06T02:35:17.245Z,95570.84
2022-09-06T02:38:00.667Z,95563.75
2022-09-06T02:40:44.488Z,95563.75
2022-09-06T02:43:27.585Z,95557.25
2022-09-06T02:46:10.812Z,95571.91
2022-09-06T02:48:53.899Z,95562.78
2022-09-06T02:51:40.127Z,95573.72
2022-09-06T02:54:23.155Z,95578.28
2022-09-06T02:57:06.263Z,95572.69
2022-09-06T02:59:49.349Z,95576.69
2022-09-06T03:02:32.510Z,95572.00
2022-09-06T03:05:15.755Z,95573.81
2022-09-06T03:08:00.778Z,95571.78
2022-09-06T03:10:50.533Z,95565.66
2022-09-06T03:13:33.583Z,95564.75
2022-09-06T03:16:16.694Z,95563.53
2022-09-06T03:18:59.827Z,95562.88
2022-09-06T03:21:42.948Z,95571.50
2022-09-06T03:24:27.432Z,95567.75
2022-09-06T03:27:10.495Z,95568.97
2022-09-06T03:29:53.616Z,95573.38
2022-09-06T03:32:36.813Z,95564.97
2022-09-06T03:35:19.887Z,95573.03
2022-09-06T03:38:03.168Z,95584.69
2022-09-06T03:40:49.237Z,95586.09
2022-09-06T03:43:32.415Z,95587.13
2022-09-06T03:46:15.590Z,95588.78
2022-09-06T03:48:58.682Z,95591.63
2022-09-06T03:51:41.803Z,95588.94
2022-09-06T03:54:24.883Z,95583.66
2022-09-06T03:57:09.332Z,95591.63
2022-09-06T03:59:52.370Z,95596.78
2022-09-06T04:02:35.669Z,95588.31
2022-09-06T04:05:18.951Z,95594.69
2022-09-06T04:08:02.469Z,95591.06
2022-09-06T04:10:45.554Z,95591.78
2022-09-06T04:13:30.641Z,95601.78
2022-09-06T04:16:13.958Z,95593.88
2022-09-06T04:19:00.125Z,95598.78
2022-09-06T04:21:43.545Z,95599.75
2022-09-06T04:24:26.622Z,95599.94
2022-09-06T04:27:09.742Z,95598.63
2022-09-06T04:29:54.727Z,95594.91
2022-09-06T04:32:38.142Z,95604.47
2022-09-06T04:35:21.252Z,95595.41
2022-09-06T04:38:05.745Z,95603.69
2022-09-06T04:40:49.042Z,95603.38
2022-09-06T04:43:32.179Z,95599.75
2022-09-06T04:46:22.825Z,95590.25
2022-09-06T04:49:05.945Z,95596.38
2022-09-06T04:51:48.998Z,95593.19
2022-09-06T04:54:32.124Z,95597.50
2022-09-06T04:57:18.060Z,95600.97
2022-09-06T05:00:01.260Z,95595.84
2022-09-06T05:02:46.259Z,95595.31
2022-09-06T05:05:29.338Z,95594.75
2022-09-06T05:08:12.394Z,95597.38
2022-09-06T05:10:55.434Z,95595.91
2022-09-06T05:13:39.012Z,95593.97
2022-09-06T05:16:22.169Z,95601.03
2022-09-06T05:19:06.722Z,95596.81
2022-09-06T05:21:49.775Z,95590.09
2022-09-06T05:24:32.785Z,95588.97
2022-09-06T05:27:15.849Z,95589.41
2022-09-06T05:29:58.890Z,95587.22
2022-09-06T05:32:42.011Z,95579.44
2022-09-06T05:35:26.486Z,95585.91
2022-09-06T05:38:09.588Z,95585.91
2022-09-06T05:40:53.996Z,95583.88
2022-09-06T05:43:37.787Z,95591.50
2022-09-06T05:46:22.053Z,95592.84
2022-09-06T05:49:08.086Z,95585.03
2022-09-06T05:51:53.472Z,95586.91
2022-09-06T05:54:36.544Z,95588.31
2022-09-06T05:57:19.672Z,95587.53
2022-09-06T06:00:02.948Z,95583.31
2022-09-06T06:02:48.939Z,95576.72
2022-09-06T06:05:32.045Z,95580.81
2022-09-06T06:08:16.450Z,95568.38
2022-09-06T06:11:01.450Z,95571.34
2022-09-06T06:13:45.434Z,95569.25
2022-09-06T06:16:29.135Z,95567.00
2022-09-06T06:19:12.448Z,95563.94
2022-09-06T06:21:56.322Z,95561.19
2022-09-06T06:24:40.868Z,95560.97
2022-09-06T06:27:23.944Z,95561.91
2022-09-06T06:30:08.028Z,95553.75
2022-09-06T06:32:51.079Z,95562.34
2022-09-06T06:35:40.049Z,95553.06
2022-09-06T06:38:23.422Z,95551.94
2022-09-06T06:41:09.561Z,95558.75
2022-09-06T06:43:53.825Z,95557.56
2022-09-06T06:46:41.761Z,95555.81
2022-09-06T06:49:26.742Z,95553.34
2022-09-06T06:52:09.762Z,95557.00
2022-09-06T06:54:52.851Z,95561.97
2022-09-06T06:57:37.286Z,95562.34
2022-09-06T07:00:22.298Z,95556.66
2022-09-06T07:03:08.056Z,95569.59
2022-09-06T07:08:54.104Z,95571.91
2022-09-06T07:11:37.129Z,95567.16
2022-09-06T07:14:21.760Z,95567.69
2022-09-06T07:17:07.459Z,95568.44
2022-09-06T07:26:06.268Z,95573.41
2022-09-06T07:28:49.659Z,95582.19
2022-09-06T07:34:39.694Z,95581.44
2022-09-06T07:37:22.775Z,95584.84
2022-09-06T07:40:06.505Z,95589.78
2022-09-06T07:42:49.715Z,95577.78
2022-09-06T07:45:32.874Z,95582.03
2022-09-06T07:48:17.335Z,95596.72
2022-09-06T07:51:08.506Z,95588.66
2022-09-06T07:54:06.906Z,95586.72
2022-09-06T07:56:56.219Z,95590.22
2022-09-06T07:59:42.858Z,95581.94
2022-09-06T08:02:26.140Z,95581.84
2022-09-06T08:11:17.505Z,95562.25
2022-09-06T08:14:02.365Z,95568.03
2022-09-06T08:16:45.580Z,95565.31
2022-09-06T08:19:28.617Z,95561.63
2022-09-06T08:22:13.194Z,95562.16
2022-09-06T08:24:56.234Z,95566.34
2022-09-06T08:27:39.380Z,95573.47
2022-09-06T08:30:22.556Z,95569.91
2022-09-06T08:33:05.879Z,95561.44
2022-09-06T08:35:56.807Z,95561.88
2022-09-06T08:38:41.754Z,95554.47
2022-09-06T08:41:27.571Z,95539.72
2022-09-06T08:47:18.603Z,95539.97
2022-09-06T08:50:05.548Z,95535.25
2022-09-06T08:53:17.288Z,95534.41
2022-09-06T08:56:15.389Z,95528.00
2022-09-06T08:59:06.773Z,95521.56
2022-09-06T09:01:58.681Z,95519.13
2022-09-06T09:04:45.557Z,95525.06
2022-09-06T09:07:41.022Z,95514.38
2022-09-06T09:10:30.264Z,95511.81
2022-09-06T09:13:22.365Z,95505.94
2022-09-06T09:16:09.247Z,95495.69
2022-09-06T09:18:55.401Z,95497.59
2022-09-06T09:21:40.134Z,95483.09
2022-09-06T09:24:24.424Z,95485.06
2022-09-06T09:27:11.313Z,95472.44
2022-09-06T09:33:23.377Z,95474.81
2022-09-06T09:36:10.875Z,95475.50
2022-09-06T09:38:57.065Z,95468.13
2022-09-06T09:41:43.839Z,95468.22
2022-09-06T09:44:29.953Z,95457.63
2022-09-06T09:47:27.961Z,95452.03
2022-09-06T09:50:25.395Z,95454.63
2022-09-06T09:53:11.352Z,95451.84
2022-09-06T09:55:58.809Z,95448.63
2022-09-06T09:58:41.926Z,95449.25
2022-09-06T10:01:29.239Z,95442.41
2022-09-06T10:07:25.993Z,95447.25
2022-09-06T10:10:14.350Z,95441.16
2022-09-06T10:13:09.339Z,95432.72
2022-09-06T10:15:55.272Z,95435.41
2022-09-06T10:18:40.511Z,95428.81
2022-09-06T10:21:28.311Z,95431.56
2022-09-06T10:24:27.819Z,95424.50
2022-09-06T10:27:20.255Z,95415.78
2022-09-06T10:30:06.353Z,95424.03
2022-09-06T10:32:58.566Z,95415.81
2022-09-06T10:35:42.993Z,95420.72
2022-09-06T10:38:38.771Z,95415.72
2022-09-06T10:41:33.296Z,95415.00
2022-09-06T10:44:31.679Z,95413.00
2022-09-06T10:47:16.434Z,95411.19
2022-09-06T10:50:02.883Z,95410.97
2022-09-06T10:52:51.965Z,95410.31
2022-09-06T10:55:41.143Z,95402.50
2022-09-06T10:58:29.812Z,95393.53
2022-09-06T11:01:24.032Z,95397.22
2022-09-06T11:04:12.842Z,95393.56
2022-09-06T11:07:02.274Z,95384.44
2022-09-06T11:09:49.606Z,95390.19
2022-09-06T11:12:41.570Z,95368.88
2022-09-06T11:15:26.658Z,95375.00
2022-09-06T11:18:16.384Z,95382.22
2022-09-06T11:21:19.641Z,95368.84
2022-09-06T11:24:12.598Z,95363.84
2022-09-06T11:27:05.787Z,95358.09
2022-09-06T11:29:56.408Z,95355.63
2022-09-06T11:32:43.457Z,95349.47
2022-09-06T11:35:32.140Z,95344.31
2022-09-06T11:38:26.150Z,95347.34
2022-09-06T11:41:17.336Z,95346.06
2022-09-06T11:44:00.932Z,95344.97
2022-09-06T11:47:02.295Z,95340.66
2022-09-06T11:49:45.484Z,95345.47
2022-09-06T11:53:14.890Z,95336.50
2022-09-06T11:56:13.913Z,95334.25
2022-09-06T11:59:01.753Z,95325.13
2022-09-06T12:02:02.689Z,95330.16
2022-09-06T12:05:26.110Z,95322.88
2022-09-06T12:08:33.239Z,95313.38
2022-09-06T12:11:38.311Z,95316.69
2022-09-06T12:14:31.214Z,95308.47
2022-09-06T12:17:25.419Z,95304.03
2022-09-06T12:20:08.844Z,95314.94
2022-09-06T12:22:56.639Z,95307.53
2022-09-06T12:25:59.209Z,95308.56
2022-09-06T12:28:48.498Z,95307.16
2022-09-06T12:31:38.232Z,95314.09
2022-09-06T12:34:25.362Z,95315.16
2022-09-06T12:37:11.180Z,95313.78
2022-09-06T12:39:59.578Z,95308.06
2022-09-06T12:42:45.524Z,95309.78
2022-09-06T12:45:28.639Z,95312.44
2022-09-06T12:48:16.647Z,95307.53
2022-09-06T12:51:05.456Z,95303.59
2022-09-06T12:53:52.165Z,95295.31
2022-09-06T12:56:35.974Z,95293.47
2022-09-06T12:59:21.501Z,95303.53
2022-09-06T13:02:08.641Z,95294.59
2022-09-06T13:04:56.484Z,95296.09
2022-09-06T13:07:45.071Z,95299.25
2022-09-06T13:10:29.228Z,95300.19
2022-09-06T13:13:18.691Z,95303.06
2022-09-06T13:16:02.156Z,95293.16
2022-09-06T13:18:45.235Z,95293.31
2022-09-06T13:21:34.008Z,95284.84
2022-09-06T13:24:24.438Z,95293.63
2022-09-06T13:27:26.964Z,95287.53
2022-09-06T13:30:11.925Z,95280.44
2022-09-06T13:32:55.003Z,95280.94
2022-09-06T13:35:39.532Z,95279.69
2022-09-06T13:38:34.976Z,95277.91
2022-09-06T13:41:41.216Z,95278.25
2022-09-06T13:44:31.182Z,95287.94
2022-09-06T13:47:14.267Z,95285.59
2022-09-06T13:49:57.356Z,95284.53
2022-09-06T13:52:40.373Z,95280.31
2022-09-06T13:55:25.918Z,95281.00
2022-09-06T13:58:10.364Z,95276.44
2022-09-06T14:00:54.691Z,95280.69
2022-09-06T14:03:39.271Z,95280.47
2022-09-06T14:06:22.674Z,95270.34
2022-09-06T14:09:07.714Z,95269.97
2022-09-06T14:12:34.400Z,95270.69
2022-09-06T14:15:19.050Z,95272.63
2022-09-06T14:18:02.260Z,95265.50
2022-09-06T14:20:53.379Z,95272.38
2022-09-06T14:23:36.606Z,95271.25
2022-09-06T14:26:21.202Z,95268.59
2022-09-06T14:29:05.782Z,95261.13
2022-09-06T14:31:50.306Z,95264.38
2022-09-06T14:34:33.358Z,95271.25
2022-09-06T14:37:16.745Z,95263.09
2022-09-06T14:40:26.722Z,95265.47
2022-09-06T14:43:09.950Z,95263.53
2022-09-06T14:45:53.089Z,95262.38
2022-09-06T14:48:41.969Z,95266.38
2022-09-06T14:51:25.514Z,95272.69
2022-09-06T14:54:11.691Z,95263.94
2022-09-06T14:56:54.850Z,95264.81
2022-09-06T14:59:38.281Z,95264.44
2022-09-06T15:02:21.507Z,95260.81
2022-09-06T15:05:06.779Z,95264.22
2022-09-06T15:07:49.894Z,95265.91
2022-09-06T15:10:33.039Z,95261.69
2022-09-06T15:13:17.050Z,95259.41
2022-09-06T15:16:00.387Z,95261.00
2022-09-06T15:18:43.611Z,95262.06
2022-09-06T15:21:28.142Z,95266.59
2022-09-06T15:24:14.010Z,95270.13
2022-09-06T15:26:57.616Z,95270.59
2022-09-06T15:29:41.288Z,95265.94
2022-09-06T15:32:24.715Z,95266.53
2022-09-06T15:35:09.116Z,95280.66
2022-09-06T15:37:53.666Z,95277.91
2022-09-06T15:40:36.800Z,95276.31
2022-09-06T15:43:20.150Z,95283.97
2022-09-06T15:46:03.462Z,95281.22
2022-09-06T15:48:48.179Z,95285.44
2022-09-06T15:51:31.293Z,95291.00
2022-09-06T15:54:18.382Z,95276.91
2022-09-06T15:57:00.534Z,95283.56
2022-09-06T15:59:43.722Z,95296.88
2022-09-06T16:02:27.095Z,95285.50
2022-09-06T16:05:10.796Z,95300.16
2022-09-06T16:07:53.993Z,95293.94
2022-09-06T16:10:40.893Z,95300.44
2022-09-06T16:13:26.101Z,95304.28
2022-09-06T16:16:11.192Z,95291.81
2022-09-06T16:18:54.288Z,95296.19
2022-09-06T16:21:39.717Z,95294.94
2022-09-06T16:24:23.654Z,95295.94
2022-09-06T16:27:08.224Z,95297.50
2022-09-06T16:29:52.668Z,95290.44
2022-09-06T16:32:36.084Z,95290.69
2022-09-06T16:35:19.518Z,95302.09
2022-09-06T16:38:02.666Z,95301.03
2022-09-06T16:40:46.608Z,95297.50
2022-09-06T16:43:34.871Z,95291.75
2022-09-06T16:46:18.222Z,95297.31
2022-09-06T16:49:03.100Z,95298.16
2022-09-06T16:51:47.604Z,95303.63
2022-09-06T16:54:31.978Z,95303.16
2022-09-06T16:57:15.574Z,95304.44
2022-09-06T17:00:00.446Z,95314.72
2022-09-06T17:02:47.127Z,95317.34
2022-09-06T17:05:31.047Z,95321.84
2022-09-06T17:08:17.127Z,95313.19
2022-09-06T17:11:06.986Z,95315.34
2022-09-06T17:13:51.978Z,95325.97
2022-09-06T17:16:53.930Z,95327.03
2022-09-06T17:19:39.499Z,95337.09
2022-09-06T17:22:22.758Z,95339.78
2022-09-06T17:25:07.066Z,95333.16
2022-09-06T17:27:50.725Z,95340.28
2022-09-06T17:30:34.572Z,95350.34
2022-09-06T17:33:20.146Z,95345.59
2022-09-06T17:36:08.012Z,95344.31
2022-09-06T17:38:53.704Z,95346.16
2022-09-06T17:41:39.485Z,95349.34
2022-09-06T17:44:25.542Z,95345.66
2022-09-06T17:47:12.881Z,95351.97
2022-09-06T17:49:57.947Z,95355.94
2022-09-06T17:52:41.050Z,95353.06
2022-09-06T17:55:24.258Z,95354.38
2022-09-06T17:58:08.484Z,95360.44
2022-09-06T18:01:06.338Z,95357.28
2022-09-06T18:03:50.238Z,95359.91
2022-09-06T18:06:36.311Z,95366.25
2022-09-06T18:09:19.483Z,95360.69
2022-09-06T18:12:03.050Z,95367.81
2022-09-06T18:14:46.182Z,95367.03
2022-09-06T18:17:30.711Z,95377.28
2022-09-06T18:20:14.110Z,95378.34
2022-09-06T18:22:59.543Z,95371.75
2022-09-06T18:25:43.024Z,95379.91
2022-09-06T18:28:31.369Z,95386.25
2022-09-06T18:31:16.334Z,95373.59
2022-09-06T18:34:00.591Z,95378.09
2022-09-06T18:36:44.446Z,95380.44
2022-09-06T18:39:29.070Z,95385.16
2022-09-06T18:42:12.465Z,95383.59
2022-09-06T18:44:56.968Z,95389.38
2022-09-06T18:47:40.043Z,95384.13
2022-09-06T18:50:23.195Z,95389.88
2022-09-06T18:53:06.736Z,95389.28
2022-09-06T18:55:53.327Z,95396.88
2022-09-06T18:58:36.726Z,95392.63
2022-09-06T19:01:21.054Z,95390.00
2022-09-06T19:04:05.502Z,95392.38
2022-09-06T19:06:48.914Z,95392.88
2022-09-06T19:09:32.219Z,95395.22
2022-09-06T19:12:16.760Z,95388.09
2022-09-06T19:14:59.863Z,95395.44
2022-09-06T19:17:43.059Z,95398.38
2022-09-06T19:20:26.163Z,95385.66
2022-09-06T19:23:09.286Z,95399.06
2022-09-06T19:25:57.845Z,95388.84
2022-09-06T19:28:42.604Z,95384.13
2022-09-06T19:31:27.320Z,95386.75
2022-09-06T19:34:12.243Z,95389.91
2022-09-06T19:36:57.314Z,95386.25
2022-09-06T19:39:40.537Z,95381.94
2022-09-06T19:42:23.907Z,95378.72
2022-09-06T19:45:09.789Z,95366.03
2022-09-06T19:47:52.955Z,95372.91
2022-09-06T19:50:37.806Z,95374.94
2022-09-06T19:53:20.883Z,95373.34
2022-09-06T19:56:11.070Z,95367.53
2022-09-06T19:58:55.731Z,95374.91
2022-09-06T20:01:41.652Z,95373.25
2022-09-06T20:04:25.079Z,95369.59
2022-09-06T20:07:08.287Z,95373.22
2022-09-06T20:09:52.607Z,95375.28
2022-09-06T20:12:36.408Z,95378.91
2022-09-06T20:15:20.024Z,95374.09
2022-09-06T20:18:04.806Z,95368.34
2022-09-06T20:20:47.997Z,95369.44
2022-09-06T20:23:32.497Z,95373.59
2022-09-06T20:26:15.627Z,95370.91
2022-09-06T20:29:00.711Z,95372.41
2022-09-06T20:31:43.845Z,95373.97
2022-09-06T20:34:29.047Z,95377.38
2022-09-06T20:37:12.178Z,95376.59
2022-09-06T20:39:55.673Z,95369.16
2022-09-06T20:42:42.261Z,95376.19
2022-09-06T20:45:25.920Z,95378.56
2022-09-06T20:48:09.057Z,95383.78
2022-09-06T20:51:01.946Z,95381.13
2022-09-06T20:53:45.127Z,95387.66
2022-09-06T20:56:29.838Z,95387.38
2022-09-06T20:59:14.728Z,95382.50
2022-09-06T21:01:58.657Z,95388.25
2022-09-06T21:04:42.062Z,95390.00
2022-09-06T21:07:26.607Z,95382.88
2022-09-06T21:10:10.114Z,95385.75
2022-09-06T21:12:53.257Z,95391.16
2022-09-06T21:15:36.991Z,95395.81
2022-09-06T21:18:20.159Z,95390.56
2022-09-06T21:21:04.752Z,95392.16
2022-09-06T21:23:49.943Z,95394.06
2022-09-06T21:26:33.759Z,95389.41
2022-09-06T21:29:16.929Z,95386.59
2022-09-06T21:32:00.170Z,95401.06
2022-09-06T21:34:43.454Z,95396.06
2022-09-06T21:37:26.580Z,95394.47
2022-09-06T21:40:11.811Z,95392.91
2022-09-06T21:42:54.963Z,95391.25
2022-09-06T21:45:39.326Z,95391.13
2022-09-06T21:48:22.490Z,95395.88
2022-09-06T21:51:07.872Z,95391.59
2022-09-06T21:53:52.635Z,95395.31
2022-09-06T21:56:38.648Z,95391.88
2022-09-06T21:59:21.943Z,95396.22
2022-09-06T22:02:05.456Z,95395.88
2022-09-06T22:04:50.445Z,95395.59
2022-09-06T22:07:35.510Z,95389.84
2022-09-06T22:10:19.808Z,95397.81
2022-09-06T22:13:04.450Z,95397.59
2022-09-06T22:15:47.780Z,95398.00
2022-09-06T22:18:31.218Z,95402.09
2022-09-06T22:21:18.598Z,95388.94
2022-09-06T22:24:03.549Z,95396.88
2022-09-06T22:26:46.771Z,95393.28
2022-09-06T22:29:31.526Z,95393.22
2022-09-06T22:32:14.952Z,95392.66
2022-09-06T22:34:58.809Z,95392.03
2022-09-06T22:37:44.337Z,95393.06
2022-09-06T22:40:27.536Z,95396.25
2022-09-06T22:43:10.792Z,95400.91
2022-09-06T22:45:55.416Z,95384.81
2022-09-06T22:48:39.229Z,95389.00
2022-09-06T22:51:22.454Z,95379.75
2022-09-06T22:54:05.913Z,95379.44
2022-09-06T22:56:49.153Z,95378.25
2022-09-06T22:59:32.321Z,95390.78
2022-09-06T23:02:16.965Z,95381.00
2022-09-06T23:05:00.157Z,95388.84
2022-09-06T23:07:43.727Z,95379.44
2022-09-06T23:10:27.553Z,95396.06
2022-09-06T23:13:11.237Z,95392.44
2022-09-06T23:15:54.400Z,95384.50
2022-09-06T23:18:39.056Z,95391.78
2022-09-06T23:21:24.310Z,95397.03
2022-09-06T23:24:07.608Z,95392.25
2022-09-06T23:26:50.774Z,95387.53
2022-09-06T23:29:35.080Z,95391.72
2022-09-06T23:32:18.226Z,95402.56
2022-09-06T23:35:03.087Z,95390.78
2022-09-06T23:37:46.998Z,95386.41
2022-09-06T23:40:30.257Z,95390.78
2022-09-06T23:43:13.572Z,95394.13
2022-09-06T23:45:56.806Z,95387.38
2022-09-06T23:48:40.892Z,95402.34
2022-09-06T23:51:25.747Z,95406.22
2022-09-06T23:54:09.225Z,95408.19
2022-09-06T23:56:52.365Z,95411.34
2022-09-06T23:59:36.690Z,95412.53
